createdAt,value
2019-05-01T00:01:04.889Z,11.40
2019-05-01T00:04:09.151Z,11.40
2019-05-01T00:06:41.760Z,11.40
2019-05-01T00:09:11.984Z,11.40
2019-05-01T00:11:41.118Z,11.40
2019-05-01T00:14:10.153Z,11.40
2019-05-01T00:16:39.221Z,11.30
2019-05-01T00:19:08.239Z,11.30
2019-05-01T00:21:37.619Z,11.40
2019-05-01T00:24:06.715Z,11.30
2019-05-01T00:26:35.741Z,11.30
2019-05-01T00:29:04.800Z,11.30
2019-05-01T00:31:33.812Z,11.30
2019-05-01T00:34:02.830Z,11.30
2019-05-01T00:36:31.789Z,11.30
2019-05-01T00:39:00.733Z,11.30
2019-05-01T00:41:29.779Z,11.30
2019-05-01T00:43:58.766Z,11.30
2019-05-01T00:46:27.769Z,11.30
2019-05-01T00:48:56.799Z,11.30
2019-05-01T00:51:25.847Z,11.30
2019-05-01T00:53:54.867Z,11.30
2019-05-01T00:56:45.934Z,11.30
2019-05-01T00:59:39.013Z,11.30
2019-05-01T01:02:29.116Z,11.20
2019-05-01T01:04:58.226Z,11.20
2019-05-01T01:07:27.287Z,11.20
2019-05-01T01:09:56.279Z,11.10
2019-05-01T01:12:25.317Z,11.10
2019-05-01T01:14:54.390Z,11.10
2019-05-01T01:17:23.608Z,11.10
2019-05-01T01:19:52.567Z,11.10
2019-05-01T01:22:21.579Z,11.10
2019-05-01T01:24:50.648Z,11.10
2019-05-01T01:27:19.676Z,11.10
2019-05-01T01:29:48.758Z,11.10
2019-05-01T01:32:17.791Z,11.10
2019-05-01T01:34:46.841Z,11.10
2019-05-01T01:37:15.885Z,11.00
2019-05-01T01:39:44.953Z,11.00
2019-05-01T01:42:14.027Z,11.00
2019-05-01T01:45:08.159Z,11.00
2019-05-01T01:47:56.655Z,11.00
2019-05-01T01:50:25.912Z,11.00
2019-05-01T01:52:55.101Z,10.90
2019-05-01T01:55:24.251Z,10.90
2019-05-01T01:57:53.691Z,11.00
2019-05-01T02:00:25.043Z,10.90
2019-05-01T02:28:58.228Z,10.70
2019-05-01T02:31:35.927Z,10.60
2019-05-01T02:34:05.081Z,10.60
2019-05-01T02:36:36.098Z,10.60
2019-05-01T02:39:08.811Z,10.70
2019-05-01T02:41:41.897Z,10.70
2019-05-01T02:44:15.940Z,10.70
2019-05-01T02:46:47.958Z,10.70
2019-05-01T02:49:27.550Z,10.70
2019-05-01T02:51:57.988Z,10.70
2019-05-01T02:54:28.329Z,10.70
2019-05-01T02:57:07.329Z,10.80
2019-05-01T02:59:38.048Z,10.80
2019-05-01T03:02:07.602Z,10.80
2019-05-01T03:04:36.748Z,10.80
2019-05-01T03:07:06.486Z,10.80
2019-05-01T03:09:36.429Z,10.80
2019-05-01T03:12:06.383Z,10.80
2019-05-01T03:14:38.871Z,10.90
2019-05-01T03:17:28.071Z,10.80
2019-05-01T03:20:03.606Z,10.80
2019-05-01T03:22:51.283Z,10.80
2019-05-01T03:25:20.807Z,10.80
2019-05-01T03:27:49.946Z,10.80
2019-05-01T03:30:19.687Z,10.80
2019-05-01T03:32:48.798Z,10.80
2019-05-01T03:35:17.819Z,10.80
2019-05-01T03:37:46.855Z,10.80
2019-05-01T03:40:16.219Z,10.80
2019-05-01T03:42:45.416Z,10.80
2019-05-01T03:45:14.482Z,10.80
2019-05-01T03:47:43.517Z,10.80
2019-05-01T03:50:12.538Z,10.70
2019-05-01T03:52:42.666Z,10.80
2019-05-01T03:55:11.685Z,10.80
2019-05-01T03:57:40.757Z,10.80
2019-05-01T04:00:12.122Z,10.80
2019-05-01T04:02:49.624Z,10.80
2019-05-01T04:05:18.673Z,10.80
2019-05-01T04:07:48.302Z,10.80
2019-05-01T04:10:17.655Z,10.80
2019-05-01T04:12:47.009Z,10.80
2019-05-01T04:15:16.231Z,10.80
2019-05-01T04:17:50.344Z,10.80
2019-05-01T04:20:19.899Z,10.80
2019-05-01T04:22:49.178Z,10.80
2019-05-01T04:25:18.575Z,10.80
2019-05-01T04:27:49.690Z,10.80
2019-05-01T04:30:40.790Z,10.80
2019-05-01T04:33:12.340Z,10.80
2019-05-01T04:35:51.274Z,10.80
2019-05-01T04:38:20.504Z,10.80
2019-05-01T04:40:50.056Z,10.80
2019-05-01T04:43:19.436Z,10.90
2019-05-01T04:45:49.242Z,10.80
2019-05-01T04:48:18.558Z,10.80
2019-05-01T04:50:48.431Z,10.90
2019-05-01T04:53:18.254Z,10.80
2019-05-01T04:55:47.893Z,10.80
2019-05-01T04:58:17.050Z,10.90
2019-05-01T05:00:46.101Z,10.90
2019-05-01T05:03:19.343Z,10.90
2019-05-01T05:05:48.806Z,10.90
2019-05-01T05:08:18.167Z,10.90
2019-05-01T05:10:48.801Z,10.90
2019-05-01T05:13:22.787Z,10.90
2019-05-01T05:16:00.796Z,10.90
2019-05-01T05:18:30.595Z,10.80
2019-05-01T05:21:00.330Z,10.80
2019-05-01T05:23:30.077Z,10.80
2019-05-01T05:25:59.118Z,10.80
2019-05-01T05:28:31.280Z,10.80
2019-05-01T05:31:02.378Z,10.80
2019-05-01T05:33:34.761Z,10.80
2019-05-01T05:36:06.597Z,10.90
2019-05-01T05:38:58.994Z,10.90
2019-05-01T05:41:29.202Z,10.80
2019-05-01T05:43:58.545Z,10.80
2019-05-01T05:46:28.003Z,10.80
2019-05-01T05:48:57.244Z,10.80
2019-05-01T05:51:40.432Z,10.70
2019-05-01T05:54:33.547Z,10.70
2019-05-01T05:57:13.847Z,10.70
2019-05-01T05:59:48.498Z,10.70
2019-05-01T06:02:48.406Z,10.80
2019-05-01T06:05:30.923Z,10.70
2019-05-01T06:08:30.474Z,10.80
2019-05-01T06:11:22.338Z,10.80
2019-05-01T06:14:19.006Z,10.90
2019-05-01T06:17:08.860Z,10.90
2019-05-01T06:19:45.925Z,11.00
2019-05-01T06:22:45.150Z,11.00
2019-05-01T06:25:22.616Z,11.00
2019-05-01T06:27:51.131Z,11.00
2019-05-01T06:30:20.263Z,11.10
2019-05-01T06:32:49.309Z,11.10
2019-05-01T06:35:18.931Z,11.10
2019-05-01T06:38:07.046Z,11.10
2019-05-01T06:40:44.939Z,11.10
2019-05-01T06:43:38.929Z,11.20
2019-05-01T06:46:27.238Z,11.20
2019-05-01T06:49:09.302Z,11.30
2019-05-01T06:51:53.386Z,11.30
2019-05-01T06:54:22.717Z,11.30
2019-05-01T06:56:52.603Z,11.50
2019-05-01T06:59:26.196Z,11.60
2019-05-01T07:01:58.343Z,11.80
2019-05-01T07:04:24.660Z,11.70
2019-05-01T07:06:53.829Z,11.80
2019-05-01T07:09:28.161Z,11.70
2019-05-01T07:11:55.381Z,11.80
2019-05-01T07:14:25.313Z,11.90
2019-05-01T07:16:54.547Z,12.00
2019-05-01T07:19:42.663Z,12.20
2019-05-01T07:22:11.699Z,12.20
2019-05-01T07:24:41.376Z,12.10
2019-05-01T07:27:10.514Z,12.00
2019-05-01T07:29:44.850Z,12.00
2019-05-01T07:32:14.841Z,11.90
2019-05-01T07:34:42.847Z,12.00
2019-05-01T07:37:11.898Z,12.10
2019-05-01T07:39:44.810Z,12.20
2019-05-01T07:42:29.222Z,12.30
2019-05-01T07:45:08.358Z,12.20
2019-05-01T07:47:40.375Z,12.30
2019-05-01T07:50:12.651Z,12.40
2019-05-01T07:52:42.277Z,12.40
2019-05-01T07:55:13.000Z,12.40
2019-05-01T07:57:44.496Z,12.40
2019-05-01T08:00:26.222Z,12.20
2019-05-01T08:02:55.295Z,12.10
2019-05-01T08:05:24.391Z,12.20
2019-05-01T08:07:53.508Z,12.40
2019-05-01T08:10:25.869Z,12.60
2019-05-01T08:12:55.404Z,12.50
2019-05-01T08:15:27.637Z,12.30
2019-05-01T08:17:56.905Z,12.50
2019-05-01T08:20:35.554Z,12.70
2019-05-01T08:23:07.602Z,12.90
2019-05-01T08:25:35.341Z,12.90
2019-05-01T08:28:19.651Z,12.50
2019-05-01T08:31:10.701Z,12.60
2019-05-01T08:34:01.863Z,12.30
2019-05-01T08:36:30.896Z,12.40
2019-05-01T08:38:59.940Z,12.50
2019-05-01T08:41:31.904Z,12.70
2019-05-01T08:43:59.882Z,12.90
2019-05-01T08:46:46.945Z,13.00
2019-05-01T08:49:23.259Z,12.90
2019-05-01T08:51:52.601Z,12.80
2019-05-01T08:54:21.815Z,12.90
2019-05-01T08:56:52.997Z,12.90
2019-05-01T08:59:23.955Z,13.10
2019-05-01T09:02:08.557Z,12.70
2019-05-01T09:04:25.402Z,12.60
2019-05-01T09:06:54.207Z,12.60
2019-05-01T09:09:23.254Z,12.70
2019-05-01T09:11:54.614Z,12.90
2019-05-01T09:14:22.927Z,13.10
2019-05-01T09:16:52.550Z,13.00
2019-05-01T09:19:21.939Z,13.20
2019-05-01T09:21:50.997Z,13.40
2019-05-01T09:24:23.260Z,13.50
2019-05-01T09:27:12.525Z,13.50
2019-05-01T09:29:46.905Z,13.30
2019-05-01T09:32:18.646Z,12.80
2019-05-01T09:34:46.661Z,12.70
2019-05-01T09:37:16.885Z,12.60
2019-05-01T09:39:47.451Z,12.60
2019-05-01T09:42:18.210Z,12.70
2019-05-01T09:44:47.640Z,12.50
2019-05-01T09:47:17.026Z,12.50
2019-05-01T09:49:48.690Z,12.80
2019-05-01T09:52:41.568Z,13.20
2019-05-01T09:55:22.922Z,13.40
2019-05-01T09:57:48.994Z,13.50
2019-05-01T10:00:25.865Z,13.40
2019-05-01T10:02:54.915Z,13.60
2019-05-01T10:05:28.954Z,13.60
2019-05-01T10:07:54.808Z,13.70
2019-05-01T10:10:24.844Z,13.80
2019-05-01T10:12:54.641Z,14.10
2019-05-01T10:15:23.702Z,14.30
2019-05-01T10:17:52.830Z,14.10
2019-05-01T10:20:21.822Z,14.30
2019-05-01T10:22:51.140Z,14.30
2019-05-01T10:25:20.180Z,14.60
2019-05-01T10:27:55.617Z,14.80
2019-05-01T10:30:46.826Z,15.00
2019-05-01T10:33:19.842Z,15.10
2019-05-01T10:36:06.602Z,15.30
2019-05-01T10:38:35.645Z,15.10
2019-05-01T10:41:09.213Z,15.00
2019-05-01T10:43:35.848Z,14.90
2019-05-01T10:46:05.036Z,15.10
2019-05-01T10:48:34.110Z,15.20
2019-05-01T10:51:03.215Z,15.20
2019-05-01T10:53:32.216Z,15.20
2019-05-01T10:56:01.250Z,14.90
2019-05-01T10:58:30.289Z,14.60
2019-05-01T11:01:06.028Z,14.50
2019-05-01T11:03:35.002Z,14.80
2019-05-01T11:06:04.119Z,15.20
2019-05-01T11:08:33.150Z,15.50
2019-05-01T11:11:02.178Z,15.50
2019-05-01T11:13:31.352Z,15.90
2019-05-01T11:16:00.469Z,16.20
2019-05-01T11:18:29.896Z,16.30
2019-05-01T11:20:59.167Z,16.40
2019-05-01T11:23:28.266Z,16.60
2019-05-01T11:25:57.439Z,16.50
2019-05-01T11:28:26.638Z,16.50
2019-05-01T11:30:55.762Z,16.30
2019-05-01T11:33:59.123Z,16.40
2019-05-01T11:36:43.679Z,16.20
2019-05-01T11:39:43.976Z,16.30
2019-05-01T11:42:14.623Z,16.20
2019-05-01T11:44:43.802Z,16.40
2019-05-01T11:47:12.944Z,16.70
2019-05-01T11:49:42.023Z,16.90
2019-05-01T11:52:11.239Z,17.00
2019-05-01T11:54:40.397Z,17.00
2019-05-01T11:57:09.523Z,17.00
2019-05-01T11:59:38.569Z,16.90
2019-05-01T12:02:07.784Z,16.80
2019-05-01T12:04:36.825Z,16.80
2019-05-01T12:07:06.062Z,16.70
2019-05-01T12:09:35.167Z,16.70
2019-05-01T12:12:07.900Z,17.00
2019-05-01T12:14:36.945Z,16.60
2019-05-01T12:17:21.049Z,16.30
2019-05-01T12:19:52.976Z,16.40
2019-05-01T12:22:22.130Z,16.60
2019-05-01T12:24:51.195Z,16.30
2019-05-01T12:27:22.277Z,16.50
2019-05-01T12:29:51.325Z,16.50
2019-05-01T12:32:20.356Z,16.60
2019-05-01T12:34:49.643Z,16.50
2019-05-01T12:37:28.171Z,16.50
2019-05-01T12:39:57.161Z,16.50
2019-05-01T12:42:27.014Z,15.80
2019-05-01T12:44:56.108Z,15.90
2019-05-01T12:47:34.540Z,15.90
2019-05-01T12:50:03.871Z,16.00
2019-05-01T12:53:01.113Z,15.70
2019-05-01T12:55:57.925Z,16.00
2019-05-01T12:58:27.027Z,16.60
2019-05-01T13:00:56.430Z,17.20
2019-05-01T13:03:25.667Z,17.60
2019-05-01T13:05:54.792Z,17.80
2019-05-01T13:08:23.864Z,17.70
2019-05-01T13:10:52.990Z,17.60
2019-05-01T13:13:22.066Z,17.70
2019-05-01T13:15:51.186Z,17.80
2019-05-01T13:18:20.420Z,17.90
2019-05-01T13:20:49.659Z,18.00
2019-05-01T13:23:18.671Z,18.00
2019-05-01T13:25:49.068Z,18.00
2019-05-01T13:28:42.780Z,18.00
2019-05-01T13:31:23.667Z,18.00
2019-05-01T13:33:52.720Z,17.60
2019-05-01T13:36:21.855Z,17.40
2019-05-01T13:38:51.026Z,17.30
2019-05-01T13:41:20.577Z,17.00
2019-05-01T13:43:49.626Z,16.80
2019-05-01T13:46:18.702Z,16.70
2019-05-01T13:48:47.855Z,16.70
2019-05-01T13:51:17.013Z,15.80
2019-05-01T13:53:46.166Z,15.50
2019-05-01T13:56:15.527Z,15.00
2019-05-01T13:58:44.579Z,14.80
2019-05-01T14:01:14.295Z,14.90
2019-05-01T14:03:43.592Z,14.80
2019-05-01T14:06:12.688Z,15.30
2019-05-01T14:08:41.721Z,15.70
2019-05-01T14:11:10.792Z,16.00
2019-05-01T14:13:39.758Z,15.50
2019-05-01T14:16:08.835Z,15.20
2019-05-01T14:18:37.833Z,15.30
2019-05-01T14:21:32.049Z,15.30
2019-05-01T14:24:10.960Z,15.50
2019-05-01T14:26:40.021Z,15.70
2019-05-01T14:29:09.088Z,15.70
2019-05-01T14:31:38.096Z,15.50
2019-05-01T14:34:07.132Z,15.00
2019-05-01T14:36:36.258Z,14.90
2019-05-01T14:39:07.181Z,15.10
2019-05-01T14:41:36.279Z,15.20
2019-05-01T14:44:06.273Z,15.10
2019-05-01T14:46:35.473Z,14.80
2019-05-01T14:49:04.526Z,14.50
2019-05-01T14:51:33.548Z,14.70
2019-05-01T14:54:02.494Z,14.50
2019-05-01T14:56:31.582Z,14.50
2019-05-01T14:59:00.590Z,14.60
2019-05-01T15:01:29.642Z,14.80
2019-05-01T15:03:58.617Z,15.00
2019-05-01T15:06:27.671Z,14.80
2019-05-01T15:08:56.715Z,14.60
2019-05-01T15:11:25.762Z,13.90
2019-05-01T15:14:25.651Z,13.80
2019-05-01T15:17:19.665Z,13.80
2019-05-01T15:19:53.779Z,13.90
2019-05-01T15:22:22.878Z,14.00
2019-05-01T15:24:51.900Z,14.10
2019-05-01T15:27:20.921Z,14.40
2019-05-01T15:29:49.933Z,14.30
2019-05-01T15:32:18.958Z,14.40
2019-05-01T15:34:47.965Z,14.50
2019-05-01T15:37:17.070Z,14.60
2019-05-01T15:39:52.912Z,14.70
2019-05-01T15:42:39.279Z,14.60
2019-05-01T15:45:08.725Z,14.60
2019-05-01T15:47:37.684Z,14.60
2019-05-01T15:50:07.215Z,14.50
2019-05-01T15:52:36.328Z,14.40
2019-05-01T15:55:06.805Z,14.00
2019-05-01T15:57:36.394Z,13.80
2019-05-01T16:00:08.069Z,13.90
2019-05-01T16:02:37.105Z,14.10
2019-05-01T16:05:06.516Z,14.10
2019-05-01T16:07:35.536Z,14.10
2019-05-01T16:10:07.550Z,14.10
2019-05-01T16:12:41.877Z,14.20
2019-05-01T16:15:17.644Z,14.30
2019-05-01T16:17:46.705Z,14.40
2019-05-01T16:20:17.026Z,14.60
2019-05-01T16:22:46.442Z,14.80
2019-05-01T16:25:15.583Z,14.80
2019-05-01T16:27:44.535Z,14.90
2019-05-01T16:30:15.539Z,14.90
2019-05-01T16:32:44.596Z,14.80
2019-05-01T16:35:13.632Z,14.90
2019-05-01T16:37:42.697Z,15.20
2019-05-01T16:40:30.260Z,15.30
2019-05-01T16:42:59.388Z,15.00
2019-05-01T16:45:29.015Z,14.70
2019-05-01T16:47:58.107Z,14.50
2019-05-01T16:50:27.168Z,14.40
2019-05-01T16:52:56.315Z,14.30
2019-05-01T16:55:25.578Z,14.30
2019-05-01T16:57:54.858Z,14.10
2019-05-01T17:00:54.193Z,14.10
2019-05-01T17:03:26.707Z,14.10
2019-05-01T17:06:29.653Z,14.20
2019-05-01T17:09:08.445Z,14.10
2019-05-01T17:11:37.520Z,14.10
2019-05-01T17:14:08.547Z,14.10
2019-05-01T17:16:37.659Z,14.20
2019-05-01T17:19:07.503Z,14.20
2019-05-01T17:21:36.557Z,14.20
2019-05-01T17:24:05.954Z,14.20
2019-05-01T17:26:34.987Z,14.20
2019-05-01T17:29:04.206Z,14.20
2019-05-01T17:31:33.688Z,14.30
2019-05-01T17:34:02.870Z,14.00
2019-05-01T17:36:31.919Z,14.10
2019-05-01T17:39:00.968Z,14.10
2019-05-01T17:41:30.026Z,14.20
2019-05-01T17:43:59.093Z,14.10
2019-05-01T17:46:28.168Z,14.10
2019-05-01T17:48:57.361Z,14.10
2019-05-01T17:51:26.348Z,14.00
2019-05-01T17:53:55.334Z,13.80
2019-05-01T17:56:28.302Z,13.70
2019-05-01T17:58:55.390Z,13.70
2019-05-01T18:01:43.532Z,13.60
2019-05-01T18:04:20.500Z,13.30
2019-05-01T18:06:50.632Z,13.30
2019-05-01T18:09:19.871Z,13.20
2019-05-01T18:11:52.145Z,13.00
2019-05-01T18:14:19.837Z,12.80
2019-05-01T18:16:51.442Z,12.70
2019-05-01T18:19:24.448Z,12.60
2019-05-01T18:22:00.541Z,12.50
2019-05-01T18:24:45.821Z,12.20
2019-05-01T18:27:32.596Z,12.10
2019-05-01T18:30:05.718Z,11.80
2019-05-01T18:32:47.552Z,11.80
2019-05-01T18:35:16.066Z,11.80
2019-05-01T18:37:56.957Z,11.70
2019-05-01T18:40:33.915Z,11.70
2019-05-01T18:43:03.331Z,11.60
2019-05-01T18:45:48.888Z,11.50
2019-05-01T18:48:19.050Z,11.50
2019-05-01T18:50:49.434Z,11.50
2019-05-01T18:53:19.656Z,11.50
2019-05-01T18:55:48.760Z,11.40
2019-05-01T18:58:18.012Z,11.40
2019-05-01T19:00:47.158Z,11.30
2019-05-01T19:03:16.220Z,11.40
2019-05-01T19:05:46.889Z,11.40
2019-05-01T19:08:16.131Z,11.50
2019-05-01T19:10:45.175Z,11.50
2019-05-01T19:13:14.598Z,11.40
2019-05-01T19:15:43.647Z,11.30
2019-05-01T19:18:12.765Z,11.30
2019-05-01T19:20:41.840Z,11.20
2019-05-01T19:23:11.277Z,11.20
2019-05-01T19:25:40.460Z,11.20
2019-05-01T19:28:13.332Z,11.20
2019-05-01T19:30:42.834Z,11.20
2019-05-01T19:33:15.742Z,11.10
2019-05-01T19:35:45.867Z,11.10
2019-05-01T19:38:17.227Z,11.00
2019-05-01T19:40:46.507Z,10.90
2019-05-01T19:43:15.677Z,10.90
2019-05-01T19:45:44.878Z,10.90
2019-05-01T19:50:34.978Z,10.90
2019-05-01T19:51:07.342Z,10.70
2019-05-01T19:53:36.585Z,10.70
2019-05-01T19:56:44.475Z,10.60
2019-05-01T19:59:15.499Z,10.60
2019-05-01T20:02:30.170Z,10.50
2019-05-01T20:05:35.855Z,10.50
2019-05-01T20:08:57.359Z,10.50
2019-05-01T20:11:29.264Z,10.40
2019-05-01T20:13:58.381Z,10.40
2019-05-01T20:16:28.516Z,10.40
2019-05-01T20:18:57.725Z,10.40
2019-05-01T20:21:26.898Z,10.30
2019-05-01T20:23:56.094Z,10.30
2019-05-01T20:26:26.950Z,10.30
2019-05-01T20:28:57.486Z,10.20
2019-05-01T20:31:28.218Z,10.20
2019-05-01T20:33:57.527Z,10.20
2019-05-01T20:36:26.415Z,10.20
2019-05-01T20:38:55.392Z,10.10
2019-05-01T20:41:24.626Z,10.10
2019-05-01T20:43:53.614Z,10.10
2019-05-01T20:46:25.911Z,10.10
2019-05-01T20:48:56.032Z,10.10
2019-05-01T20:51:27.179Z,10.00
2019-05-01T20:53:56.287Z,10.00
2019-05-01T20:56:30.642Z,10.00
2019-05-01T20:59:03.197Z,10.00
2019-05-01T21:01:30.971Z,9.90
2019-05-01T21:04:17.655Z,9.90
2019-05-01T21:06:53.476Z,9.90
2019-05-01T21:09:28.736Z,9.80
2019-05-01T21:12:05.422Z,9.80
2019-05-01T21:14:36.923Z,9.80
2019-05-01T21:17:09.656Z,9.80
2019-05-01T21:19:37.764Z,9.70
2019-05-01T21:22:07.324Z,9.70
2019-05-01T21:24:36.223Z,9.70
2019-05-01T21:27:05.339Z,9.70
2019-05-01T21:29:34.411Z,9.70
2019-05-01T21:32:03.623Z,9.70
2019-05-01T21:34:33.409Z,9.60
2019-05-01T21:37:02.776Z,9.70
2019-05-01T21:39:33.469Z,9.60
2019-05-01T21:42:06.571Z,9.60
2019-05-01T21:44:33.352Z,9.60
2019-05-01T21:47:03.971Z,9.50
2019-05-01T21:49:33.335Z,9.60
2019-05-01T21:52:03.584Z,9.60
2019-05-01T21:54:33.370Z,9.50
2019-05-01T21:57:02.615Z,9.50
2019-05-01T21:59:31.654Z,9.50
2019-05-01T22:02:00.708Z,9.50
2019-05-01T22:04:31.992Z,9.50
2019-05-01T22:07:00.561Z,9.40
2019-05-01T22:09:30.516Z,9.40
2019-05-01T22:11:59.617Z,9.40
2019-05-01T22:14:53.907Z,9.40
2019-05-01T22:17:32.076Z,9.30
2019-05-01T22:20:01.464Z,9.30
2019-05-01T22:22:45.956Z,9.30
2019-05-01T22:25:20.052Z,9.20
2019-05-01T22:27:53.628Z,9.30
2019-05-01T22:30:46.166Z,9.30
2019-05-01T22:33:16.206Z,9.30
2019-05-01T22:35:50.963Z,9.20
2019-05-01T22:38:21.658Z,9.20
2019-05-01T22:41:06.566Z,9.20
2019-05-01T22:44:47.763Z,9.10
2019-05-01T22:47:39.574Z,9.10
2019-05-01T22:50:14.980Z,9.00
2019-05-01T22:52:44.021Z,9.00
2019-05-01T22:55:15.473Z,8.90
2019-05-01T22:57:44.529Z,8.90
2019-05-01T23:00:29.739Z,8.90
2019-05-01T23:03:05.598Z,8.90
2019-05-01T23:05:31.930Z,8.80
2019-05-01T23:08:00.910Z,8.80
2019-05-01T23:10:30.317Z,8.80
2019-05-01T23:12:59.357Z,8.70
2019-05-01T23:15:30.102Z,8.70
2019-05-01T23:17:59.143Z,8.70
2019-05-01T23:20:28.214Z,8.70
2019-05-01T23:22:57.294Z,8.70
2019-05-01T23:25:26.352Z,8.70
2019-05-01T23:27:55.629Z,8.60
2019-05-01T23:30:24.744Z,8.60
2019-05-01T23:32:53.710Z,8.60
2019-05-01T23:35:22.783Z,8.60
2019-05-01T23:37:51.809Z,8.50
2019-05-01T23:40:20.851Z,8.40
2019-05-01T23:42:53.689Z,8.40
2019-05-01T23:45:20.635Z,8.40
2019-05-01T23:47:49.773Z,8.40
2019-05-01T23:50:19.117Z,8.30
2019-05-01T23:52:48.096Z,8.30
2019-05-01T23:55:17.207Z,8.30
2019-05-01T23:57:46.245Z,8.30
